Time;durP1;ratioP1;P1;durP2;ratioP2;P2;SDS_P1;SDS_P2;PMS_P1;PMS_P2;Temp;Humidity;BMP_temperature;BMP_pressure;BME280_temperature;BME280_humidity;BME280_pressure;Samples;Min_cycle;Max_cycle;Signal;HPM_P1;HPM_P2
2021/05/08 00:00:54;;;;;;;9.52;6.75;;;;;;;3.48;100.00;96753.25;5006604;28;20692;-56
2021/05/08 00:03:22;;;;;;;9.32;6.97;;;;;;;3.22;100.00;96754.81;5021386;28;20463;-53
2021/05/08 00:05:50;;;;;;;8.48;7.13;;;;;;;3.40;100.00;96752.03;5023710;28;20091;-57
2021/05/08 00:08:19;;;;;;;7.10;6.40;;;;;;;3.07;100.00;96759.19;5024255;28;20045;-57
2021/05/08 00:10:46;;;;;;;9.50;6.78;;;;;;;3.24;100.00;96755.59;5021453;28;20072;-51
2021/05/08 00:13:15;;;;;;;7.00;6.30;;;;;;;3.11;100.00;96752.03;5025015;28;20066;-58
2021/05/08 00:15:43;;;;;;;8.77;7.10;;;;;;;3.14;100.00;96762.28;5022863;28;20065;-50
2021/05/08 00:18:11;;;;;;;8.23;6.25;;;;;;;3.17;100.00;96754.28;5023969;28;20467;-57
2021/05/08 00:20:39;;;;;;;9.82;7.05;;;;;;;3.12;100.00;96752.88;5022398;28;20077;-54
2021/05/08 00:23:08;;;;;;;6.35;5.75;;;;;;;2.95;100.00;96753.84;5024348;28;20542;-58
2021/05/08 00:25:36;;;;;;;6.85;6.13;;;;;;;3.11;100.00;96762.44;4994900;28;20077;-54
2021/05/08 00:28:05;;;;;;;7.63;6.93;;;;;;;3.18;100.00;96755.94;5026573;28;20087;-56
2021/05/08 00:30:35;;;;;;;7.80;6.45;;;;;;;3.21;100.00;96760.13;5021965;28;20053;-58
2021/05/08 00:33:04;;;;;;;7.15;6.35;;;;;;;3.21;100.00;96760.13;5023216;28;20076;-54
2021/05/08 00:35:32;;;;;;;8.20;6.95;;;;;;;3.17;100.00;96753.44;5028708;28;20550;-52
2021/05/08 00:38:00;;;;;;;7.75;6.95;;;;;;;3.25;100.00;96757.25;5020758;28;20064;-50
2021/05/08 00:40:27;;;;;;;8.07;6.68;;;;;;;3.22;100.00;96748.78;5025323;28;20076;-56
2021/05/08 00:42:57;;;;;;;8.95;6.70;;;;;;;2.94;100.00;96754.81;5020349;28;20076;-55
2021/05/08 00:45:25;;;;;;;8.75;6.68;;;;;;;2.77;100.00;96753.19;5023578;28;20060;-55
2021/05/08 00:48:04;;;;;;;7.20;6.50;;;;;;;2.84;100.00;96751.88;5017537;28;20073;-50
2021/05/08 00:50:34;;;;;;;7.78;6.63;;;;;;;3.00;100.00;96752.66;5025011;28;20466;-55
2021/05/08 00:53:02;;;;;;;9.00;6.77;;;;;;;2.90;100.00;96750.69;5019296;28;20550;-52
2021/05/08 00:55:31;;;;;;;7.43;6.63;;;;;;;3.02;100.00;96742.97;5024262;28;20091;-53
2021/05/08 00:58:00;;;;;;;7.43;6.63;;;;;;;2.80;100.00;96737.38;5019842;28;20064;-51
2021/05/08 01:00:29;;;;;;;7.93;7.13;;;;;;;2.95;100.00;96738.22;5023510;28;20508;-51
2021/05/08 01:02:57;;;;;;;8.98;7.10;;;;;;;2.93;100.00;96740.94;5021859;28;20519;-51
2021/05/08 01:05:26;;;;;;;8.27;7.32;;;;;;;2.83;100.00;96745.84;5026503;28;20583;-51
2021/05/08 01:08:13;;;;;;;7.18;6.45;;;;;;;2.69;100.00;96745.81;5021163;28;20060;-53
2021/05/08 01:10:42;;;;;;;7.30;6.60;;;;;;;2.60;100.00;96755.00;5025627;28;20176;-50
2021/05/08 01:13:11;;;;;;;7.32;6.53;;;;;;;2.45;100.00;96749.84;5019097;28;20073;-57
2021/05/08 01:15:40;;;;;;;8.00;6.82;;;;;;;2.50;100.00;96747.78;5023822;28;20053;-54
2021/05/08 01:18:11;;;;;;;8.23;6.70;;;;;;;2.48;100.00;96742.69;5020801;28;20407;-52
2021/05/08 01:20:41;;;;;;;8.10;6.70;;;;;;;2.61;100.00;96745.41;5027157;28;20068;-53
2021/05/08 01:23:28;;;;;;;8.77;7.15;;;;;;;2.70;100.00;96744.06;5022477;28;20483;-55
2021/05/08 01:25:56;;;;;;;8.40;7.53;;;;;;;2.48;100.00;96740.09;5025638;28;20037;-52
2021/05/08 01:28:27;;;;;;;11.80;7.20;;;;;;;2.56;100.00;96739.66;5026369;28;20044;-52
2021/05/08 01:30:54;;;;;;;8.27;7.13;;;;;;;2.51;100.00;96745.13;5026894;28;20574;-56
2021/05/08 01:33:22;;;;;;;8.60;6.78;;;;;;;2.67;100.00;96742.44;5023992;28;20045;-51
2021/05/08 01:35:50;;;;;;;9.43;7.55;;;;;;;2.52;100.00;96746.78;5028163;28;20674;-50
2021/05/08 01:38:19;;;;;;;7.32;6.57;;;;;;;2.57;100.00;96747.34;5023595;28;20442;-55
2021/05/08 01:40:47;;;;;;;10.60;7.10;;;;;;;2.41;100.00;96748.31;5026921;28;20061;-51
2021/05/08 01:43:15;;;;;;;8.15;7.25;;;;;;;2.27;100.00;96752.56;5027426;28;20345;-52
2021/05/08 01:45:43;;;;;;;7.70;6.95;;;;;;;2.26;100.00;96752.63;5025957;28;20103;-54
2021/05/08 01:48:11;;;;;;;9.85;7.55;;;;;;;2.45;100.00;96745.47;5024145;28;20104;-51
2021/05/08 01:50:39;;;;;;;8.38;6.90;;;;;;;2.46;100.00;96743.69;5026347;28;20085;-54
2021/05/08 01:53:08;;;;;;;9.48;7.30;;;;;;;2.20;100.00;96746.00;5025502;28;20416;-57
2021/05/08 01:55:35;;;;;;;9.00;7.43;;;;;;;2.10;100.00;96747.47;5020205;28;20077;-55
2021/05/08 01:58:07;;;;;;;9.07;7.28;;;;;;;2.26;100.00;96750.03;5024924;28;20132;-55
2021/05/08 02:00:36;;;;;;;8.32;7.47;;;;;;;2.45;100.00;96744.63;5026664;28;20053;-50
2021/05/08 02:03:05;;;;;;;7.53;6.72;;;;;;;2.33;100.00;96740.94;5028901;28;20065;-55
2021/05/08 02:05:35;;;;;;;7.30;6.53;;;;;;;2.32;100.00;96742.72;5027277;28;20089;-54
2021/05/08 02:08:04;;;;;;;8.18;6.70;;;;;;;2.49;100.00;96736.56;5026754;28;20072;-55
2021/05/08 02:10:33;;;;;;;8.88;6.60;;;;;;;2.36;100.00;96741.63;5020607;28;20037;-54
2021/05/08 02:13:02;;;;;;;8.32;7.10;;;;;;;2.34;100.00;96747.81;5026107;28;20041;-56
2021/05/08 02:15:31;;;;;;;7.63;6.82;;;;;;;2.40;100.00;96752.69;5021616;28;20099;-53
2021/05/08 02:18:00;;;;;;;8.40;7.53;;;;;;;2.25;100.00;96744.00;5026226;28;20084;-49
2021/05/08 02:20:29;;;;;;;8.38;7.47;;;;;;;2.20;100.00;96747.75;5028122;28;20079;-52
2021/05/08 02:22:59;;;;;;;8.95;7.40;;;;;;;2.38;100.00;96738.94;5023900;28;20041;-54
2021/05/08 02:25:28;;;;;;;11.25;8.45;;;;;;;2.54;100.00;96739.72;5022453;28;20069;-55
2021/05/08 02:27:56;;;;;;;10.40;7.95;;;;;;;2.52;100.00;96743.34;5025972;28;20092;-53
2021/05/08 02:30:25;;;;;;;12.50;8.40;;;;;;;2.51;100.00;96737.31;5021835;28;20045;-54
2021/05/08 02:32:54;;;;;;;9.68;8.65;;;;;;;2.55;100.00;96738.81;5026844;28;20057;-52
2021/05/08 02:35:24;;;;;;;10.07;8.57;;;;;;;2.54;100.00;96739.72;5029338;28;20042;-55
2021/05/08 02:37:53;;;;;;;11.25;9.30;;;;;;;2.57;100.00;96730.91;5024173;28;20061;-52
2021/05/08 02:40:23;;;;;;;9.88;8.57;;;;;;;2.65;100.00;96738.25;5024108;28;20551;-54
2021/05/08 02:42:51;;;;;;;10.75;8.05;;;;;;;2.70;100.00;96733.63;5025556;28;20045;-51
2021/05/08 02:45:19;;;;;;;11.38;8.90;;;;;;;2.64;100.00;96724.41;5024634;28;20049;-51
2021/05/08 02:47:49;;;;;;;10.35;8.25;;;;;;;2.98;100.00;96744.09;5025659;28;20084;-56
2021/05/08 02:50:21;;;;;;;9.80;8.05;;;;;;;2.67;100.00;96731.22;5038975;22;23236;-66
2021/05/08 02:52:52;;;;;;;11.02;8.50;;;;;;;2.73;100.00;96726.47;5002808;28;20088;-66
2021/05/08 02:55:21;;;;;;;9.93;8.18;;;;;;;2.22;100.00;96727.72;4990340;28;20077;-65
2021/05/08 02:57:49;;;;;;;9.00;7.85;;;;;;;2.17;100.00;96725.38;4999292;28;20077;-64
2021/05/08 03:00:19;;;;;;;9.43;7.43;;;;;;;2.22;100.00;96720.75;5002069;28;20117;-65
2021/05/08 03:03:05;;;;;;;10.05;7.78;;;;;;;2.09;100.00;96725.78;5001331;28;20085;-66
2021/05/08 03:05:34;;;;;;;10.32;8.90;;;;;;;2.25;100.00;96717.13;5008999;28;20089;-66
2021/05/08 03:08:02;;;;;;;8.98;7.65;;;;;;;2.42;100.00;96717.00;5003337;28;20041;-66
2021/05/08 03:10:30;;;;;;;9.30;8.20;;;;;;;2.36;100.00;96715.59;5003917;28;20072;-65
2021/05/08 03:12:58;;;;;;;9.25;8.32;;;;;;;2.21;100.00;96721.69;5005204;28;20065;-65
2021/05/08 03:15:27;;;;;;;9.60;8.07;;;;;;;2.18;100.00;96711.44;5003778;28;20186;-65
2021/05/08 03:17:55;;;;;;;10.20;8.27;;;;;;;2.22;100.00;96705.13;5004237;28;20037;-65
2021/05/08 03:20:24;;;;;;;10.30;8.23;;;;;;;2.35;100.00;96705.28;5008356;28;20045;-62
2021/05/08 03:22:54;;;;;;;9.77;8.68;;;;;;;2.19;100.00;96705.31;4985816;28;20073;-65
2021/05/08 03:25:22;;;;;;;11.82;8.48;;;;;;;1.95;100.00;96715.31;5007537;28;20537;-66
2021/05/08 03:27:49;;;;;;;8.90;7.90;;;;;;;1.76;100.00;96717.28;5000749;28;20058;-67
2021/05/08 03:30:18;;;;;;;9.45;7.93;;;;;;;1.83;100.00;96709.06;5004905;28;20599;-68
2021/05/08 03:32:46;;;;;;;11.43;8.18;;;;;;;2.05;100.00;96702.66;5006670;28;20081;-67
2021/05/08 03:35:14;;;;;;;10.95;8.20;;;;;;;2.31;100.00;96709.00;5005995;28;20069;-65
2021/05/08 03:37:42;;;;;;;9.80;8.13;;;;;;;2.29;100.00;96709.06;5005063;28;20535;-66
2021/05/08 03:40:12;;;;;;;8.93;8.02;;;;;;;2.06;100.00;96710.34;5003020;28;20062;-65
2021/05/08 03:42:40;;;;;;;10.10;7.65;;;;;;;2.06;100.00;96704.31;5004109;28;20523;-67
2021/05/08 03:45:10;;;;;;;8.00;7.20;;;;;;;1.97;100.00;96697.88;5001349;28;20468;-65
2021/05/08 03:47:38;;;;;;;9.75;8.38;;;;;;;2.03;100.00;96701.88;5008932;28;20089;-66
2021/05/08 03:50:07;;;;;;;9.00;8.10;;;;;;;2.00;100.00;96695.13;5000158;28;20084;-68
2021/05/08 03:52:35;;;;;;;8.57;7.63;;;;;;;2.19;100.00;96704.47;4985646;28;20069;-65
2021/05/08 03:55:03;;;;;;;9.52;8.50;;;;;;;2.48;100.00;96702.78;5002702;28;20100;-64
2021/05/08 03:57:32;;;;;;;9.25;8.25;;;;;;;2.70;100.00;96694.56;5004680;28;20072;-65
2021/05/08 04:00:00;;;;;;;9.23;7.90;;;;;;;2.73;100.00;96699.59;5002283;28;20081;-65
2021/05/08 04:02:28;;;;;;;7.20;6.47;;;;;;;2.78;100.00;96695.78;5008286;28;20100;-66
2021/05/08 04:04:55;;;;;;;8.27;7.07;;;;;;;2.70;100.00;96691.97;4997362;28;20507;-66
2021/05/08 04:07:23;;;;;;;8.60;7.13;;;;;;;2.56;100.00;96696.22;5005647;28;20042;-65
2021/05/08 04:09:53;;;;;;;8.07;7.25;;;;;;;2.52;100.00;96689.53;5003691;28;20073;-64
2021/05/08 04:12:21;;;;;;;7.85;7.10;;;;;;;3.13;100.00;96694.59;5002932;28;20080;-65
2021/05/08 04:14:50;;;;;;;9.05;7.10;;;;;;;4.54;100.00;96686.47;5004993;28;20084;-66
2021/05/08 04:17:19;;;;;;;7.32;6.60;;;;;;;5.47;100.00;96684.47;5004503;28;20527;-67
2021/05/08 04:19:48;;;;;;;6.78;6.15;;;;;;;6.09;100.00;96679.22;5001987;28;20038;-66
2021/05/08 04:22:16;;;;;;;6.28;5.68;;;;;;;7.49;100.00;96676.53;5007027;28;20061;-67
2021/05/08 04:24:43;;;;;;;6.30;5.50;;;;;;;8.02;100.00;96679.31;5001502;28;20069;-66
2021/05/08 04:27:12;;;;;;;5.75;5.25;;;;;;;8.62;97.90;96675.28;4988471;28;20191;-66
2021/05/08 04:29:40;;;;;;;5.72;5.13;;;;;;;9.21;86.82;96681.75;5009008;28;20153;-64
2021/05/08 04:32:08;;;;;;;5.30;4.80;;;;;;;9.06;90.41;96683.06;5001893;28;20074;-67
2021/05/08 04:34:37;;;;;;;6.95;5.07;;;;;;;10.06;82.71;96676.09;5005054;28;20065;-66
2021/05/08 04:37:06;;;;;;;6.60;5.78;;;;;;;11.08;69.99;96678.31;5003015;28;20046;-66
2021/05/08 04:39:34;;;;;;;6.82;5.20;;;;;;;9.93;79.56;96688.69;4992541;28;20046;-66
2021/05/08 04:42:02;;;;;;;6.40;5.80;;;;;;;11.06;69.67;96685.56;5000051;28;20108;-67
2021/05/08 04:44:30;;;;;;;6.47;5.80;;;;;;;11.59;65.05;96682.34;5004517;28;20050;-66
2021/05/08 04:46:58;;;;;;;6.38;5.78;;;;;;;12.06;62.37;96683.09;4998232;28;20038;-65
2021/05/08 04:49:27;;;;;;;6.40;5.80;;;;;;;11.55;63.30;96688.88;5000915;28;20077;-66
2021/05/08 04:51:56;;;;;;;6.70;6.10;;;;;;;12.78;58.21;96681.31;5002805;28;20543;-66
2021/05/08 04:54:24;;;;;;;6.50;5.80;;;;;;;13.00;56.50;96687.94;5001698;28;20483;-65
2021/05/08 04:56:52;;;;;;;6.50;5.68;;;;;;;12.92;55.19;96681.75;5005909;28;20053;-65
2021/05/08 04:59:21;;;;;;;7.68;5.93;;;;;;;13.11;53.12;96678.09;5006959;28;20475;-66
2021/05/08 05:01:48;;;;;;;6.63;5.43;;;;;;;12.91;54.62;96688.06;5005491;28;20539;-67
2021/05/08 05:04:17;;;;;;;5.95;5.28;;;;;;;13.58;52.98;96675.94;5005330;28;20069;-66
2021/05/08 05:06:46;;;;;;;6.65;5.72;;;;;;;12.74;56.73;96679.16;5002447;28;20543;-67
2021/05/08 05:09:13;;;;;;;6.80;5.57;;;;;;;11.25;70.66;96687.31;5009172;28;20061;-68
2021/05/08 05:11:41;;;;;;;5.95;5.35;;;;;;;11.38;73.62;96691.28;5006358;28;20563;-67
2021/05/08 05:14:09;;;;;;;5.85;5.28;;;;;;;10.72;78.68;96688.66;5005296;28;20516;-67
2021/05/08 05:16:37;;;;;;;5.97;4.90;;;;;;;11.33;79.44;96684.81;5006305;28;20058;-67
2021/05/08 05:19:06;;;;;;;5.60;4.97;;;;;;;11.74;73.06;96690.63;5002775;28;20042;-67
2021/05/08 05:21:34;;;;;;;6.32;5.68;;;;;;;12.01;71.09;96688.03;5006463;28;20038;-67
2021/05/08 05:24:05;;;;;;;7.93;5.80;;;;;;;11.53;75.13;96685.56;5004725;28;20050;-65
2021/05/08 05:26:33;;;;;;;6.32;5.53;;;;;;;12.46;69.21;96686.34;5007414;28;20077;-67
2021/05/08 05:29:01;;;;;;;5.28;4.40;;;;;;;13.82;60.95;96685.81;5000951;28;20066;-65
2021/05/08 05:31:29;;;;;;;5.30;4.32;;;;;;;13.59;60.37;96690.81;5006685;28;20045;-67
2021/05/08 05:33:57;;;;;;;5.45;4.43;;;;;;;14.06;57.32;96698.34;5002254;28;20092;-66
2021/05/08 05:36:26;;;;;;;5.15;4.60;;;;;;;13.45;60.69;96696.72;5004896;28;20680;-66
2021/05/08 05:38:54;;;;;;;5.22;4.72;;;;;;;14.18;58.29;96696.25;5004308;28;20061;-66
2021/05/08 05:41:24;;;;;;;5.50;4.82;;;;;;;13.63;60.64;96691.38;5009318;28;20111;-66
2021/05/08 05:43:53;;;;;;;6.13;5.05;;;;;;;12.36;66.93;96702.28;5007389;28;20069;-66
2021/05/08 05:46:21;;;;;;;5.55;5.05;;;;;;;11.28;83.63;96708.97;5006900;28;20042;-65
2021/05/08 05:48:50;;;;;;;7.40;5.55;;;;;;;11.05;86.50;96697.94;4996694;28;20096;-65
2021/05/08 05:51:19;;;;;;;7.45;5.25;;;;;;;10.45;92.80;96703.34;5004006;28;20064;-66
2021/05/08 05:53:55;;;;;;;7.05;5.72;;;;;;;9.26;100.00;96708.53;5004610;28;20092;-66
2021/05/08 05:56:26;;;;;;;7.20;5.25;;;;;;;8.41;100.00;96709.44;4999712;28;20291;-65
2021/05/08 05:58:55;;;;;;;8.48;6.07;;;;;;;8.89;100.00;96716.88;4998742;28;20049;-65
2021/05/08 06:01:23;;;;;;;7.57;5.55;;;;;;;8.43;100.00;96707.53;4999039;28;20041;-64
2021/05/08 06:03:51;;;;;;;6.75;5.55;;;;;;;7.87;100.00;96714.66;4998153;28;20107;-65
2021/05/08 06:06:19;;;;;;;6.03;5.07;;;;;;;8.05;100.00;96710.56;4998549;28;20065;-65
2021/05/08 06:08:47;;;;;;;6.45;5.28;;;;;;;7.71;100.00;96704.53;5003038;28;20562;-64
2021/05/08 06:11:16;;;;;;;7.32;5.32;;;;;;;7.91;100.00;96697.72;5004194;28;20115;-65
2021/05/08 06:13:44;;;;;;;7.45;5.72;;;;;;;7.67;100.00;96698.69;4998883;28;20057;-65
2021/05/08 06:16:12;;;;;;;6.30;5.45;;;;;;;8.16;100.00;96689.56;5003616;28;20065;-65
2021/05/08 06:18:39;;;;;;;6.30;5.70;;;;;;;8.40;100.00;96685.94;5003696;28;20522;-66
2021/05/08 06:21:09;;;;;;;8.40;5.65;;;;;;;8.01;100.00;96688.13;5001519;28;20112;-65
2021/05/08 06:23:37;;;;;;;7.80;6.13;;;;;;;8.63;100.00;96692.72;5005328;28;20526;-65
2021/05/08 06:26:05;;;;;;;9.57;5.97;;;;;;;9.02;100.00;96695.66;5001139;28;20469;-67
2021/05/08 06:28:32;;;;;;;6.47;5.30;;;;;;;8.43;100.00;96683.03;4982738;28;20045;-66
2021/05/08 06:31:02;;;;;;;7.00;5.50;;;;;;;8.49;100.00;96691.25;4999395;28;20483;-67
2021/05/08 06:33:30;;;;;;;6.47;5.68;;;;;;;8.82;100.00;96689.41;5001912;28;20062;-67
2021/05/08 06:35:58;;;;;;;6.90;6.03;;;;;;;8.62;100.00;96692.88;5002299;28;20037;-67
2021/05/08 06:38:26;;;;;;;7.82;5.25;;;;;;;9.68;100.00;96688.19;5005487;28;20476;-66
2021/05/08 06:40:54;;;;;;;10.32;6.20;;;;;;;9.23;100.00;96688.56;5000909;28;20057;-66
2021/05/08 06:43:22;;;;;;;6.15;5.18;;;;;;;9.60;100.00;96679.28;5005245;28;20080;-67
2021/05/08 06:45:50;;;;;;;7.60;5.30;;;;;;;9.26;100.00;96688.31;5000051;28;20554;-68
2021/05/08 06:48:20;;;;;;;7.15;5.32;;;;;;;10.11;100.00;96679.16;5004596;28;20459;-67
2021/05/08 06:50:48;;;;;;;6.60;4.93;;;;;;;9.97;100.00;96684.81;4972801;28;933380;-68
2021/05/08 06:53:16;;;;;;;6.63;4.97;;;;;;;10.78;100.00;96671.44;5003743;28;20322;-67
2021/05/08 06:55:44;;;;;;;7.35;4.80;;;;;;;10.51;100.00;96674.78;5003332;28;20559;-67
2021/05/08 06:58:12;;;;;;;6.05;4.90;;;;;;;10.69;100.00;96673.09;4988186;28;20062;-67
2021/05/08 07:00:41;;;;;;;5.47;4.57;;;;;;;10.76;100.00;96665.47;5000544;28;20068;-67
2021/05/08 07:03:28;;;;;;;4.90;4.40;;;;;;;11.04;100.00;96663.75;5000194;28;20805;-67
2021/05/08 07:05:56;;;;;;;5.20;4.43;;;;;;;10.93;100.00;96660.28;4997863;28;20100;-67
2021/05/08 07:08:24;;;;;;;5.75;4.72;;;;;;;10.58;100.00;96663.53;4999879;28;20085;-68
2021/05/08 07:10:52;;;;;;;6.50;4.47;;;;;;;11.04;100.00;96663.75;4997074;28;20077;-68
2021/05/08 07:13:25;;;;;;;5.20;4.07;;;;;;;10.89;100.00;96658.91;5000890;28;20044;-67
2021/05/08 07:15:57;;;;;;;6.20;4.28;;;;;;;11.04;100.00;96669.84;5003270;28;20522;-66
2021/05/08 07:18:26;;;;;;;5.53;4.28;;;;;;;11.24;100.00;96661.91;5004005;28;20523;-68
2021/05/08 07:20:55;;;;;;;5.60;4.30;;;;;;;11.60;100.00;96668.16;5004267;28;20072;-67
2021/05/08 07:23:23;;;;;;;6.35;4.78;;;;;;;11.95;100.00;96662.19;5002893;28;20081;-65
2021/05/08 07:25:51;;;;;;;4.82;4.32;;;;;;;11.49;100.00;96669.16;5003251;28;20073;-68
2021/05/08 07:28:37;;;;;;;5.53;4.72;;;;;;;11.88;100.00;96666.38;4998317;28;20097;-65
2021/05/08 07:31:05;;;;;;;5.65;3.80;;;;;;;11.45;100.00;96664.31;4995051;28;20070;-68
2021/05/08 07:33:50;;;;;;;5.03;4.30;;;;;;;12.36;93.90;96657.31;4975302;28;20180;-67
2021/05/08 07:36:19;;;;;;;5.65;3.88;;;;;;;12.07;98.74;96653.03;5000716;28;20921;-67
2021/05/08 07:38:47;;;;;;;7.07;4.03;;;;;;;11.61;100.00;96654.81;5001591;28;20086;-64
2021/05/08 07:41:15;;;;;;;5.97;4.10;;;;;;;12.29;97.63;96633.28;5004330;28;20107;-67
2021/05/08 07:43:43;;;;;;;5.70;4.30;;;;;;;12.33;94.40;96632.00;4997844;28;20096;-67
2021/05/08 07:46:12;;;;;;;7.40;3.95;;;;;;;11.93;94.61;96631.59;4998781;28;20584;-68
2021/05/08 07:48:40;;;;;;;5.80;4.25;;;;;;;11.99;90.38;96637.09;5003140;28;20154;-66
2021/05/08 07:51:08;;;;;;;4.90;3.78;;;;;;;12.43;86.43;96624.00;5003166;28;20074;-67
2021/05/08 07:53:37;;;;;;;5.53;3.72;;;;;;;12.70;83.55;96630.16;5004604;28;20072;-66
2021/05/08 07:56:05;;;;;;;3.63;3.25;;;;;;;13.11;81.13;96630.44;5000747;28;20083;-65
2021/05/08 07:58:33;;;;;;;5.10;3.67;;;;;;;13.40;74.38;96636.25;4999436;28;20065;-65
2021/05/08 08:01:01;;;;;;;4.03;3.60;;;;;;;13.52;67.24;96634.16;5004915;28;20046;-66
2021/05/08 08:03:29;;;;;;;4.00;3.53;;;;;;;13.64;61.70;96624.13;5000838;28;20065;-67
2021/05/08 08:05:58;;;;;;;4.90;3.53;;;;;;;13.14;61.46;96627.47;5003322;28;20057;-66
2021/05/08 08:08:28;;;;;;;5.70;3.20;;;;;;;13.57;60.47;96634.53;5002114;28;20070;-64
2021/05/08 08:10:58;;;;;;;5.15;3.10;;;;;;;13.14;57.94;96633.59;5000625;28;20069;-64
2021/05/08 08:13:26;;;;;;;4.55;3.25;;;;;;;13.30;59.45;96633.72;5000738;28;20078;-64
2021/05/08 08:15:54;;;;;;;3.47;2.80;;;;;;;13.39;55.66;96634.63;4998446;28;20088;-65
2021/05/08 08:18:25;;;;;;;3.75;3.03;;;;;;;13.74;55.74;96644.22;5000475;28;20412;-65
2021/05/08 08:20:53;;;;;;;4.80;3.03;;;;;;;14.21;57.45;96627.78;4989483;28;20104;-63
2021/05/08 08:23:21;;;;;;;2.67;2.47;;;;;;;13.79;57.63;96630.47;5009309;28;20392;-66
2021/05/08 08:25:50;;;;;;;4.57;3.50;;;;;;;14.00;58.61;96638.84;4999080;28;20104;-65
2021/05/08 08:28:19;;;;;;;3.58;3.00;;;;;;;13.48;54.97;96641.59;5006236;28;20074;-65
2021/05/08 08:30:47;;;;;;;3.97;2.97;;;;;;;14.02;48.23;96630.72;5003659;28;20073;-65
2021/05/08 08:33:15;;;;;;;4.70;2.90;;;;;;;14.41;53.60;96632.75;5004907;28;20062;-65
2021/05/08 08:35:44;;;;;;;3.95;3.00;;;;;;;14.05;52.63;96634.88;5012500;28;20092;-66
2021/05/08 08:38:12;;;;;;;3.38;3.05;;;;;;;14.49;49.70;96630.97;5002164;28;20034;-64
2021/05/08 08:40:40;;;;;;;4.05;2.72;;;;;;;14.76;46.09;96628.97;5007697;28;20057;-65
2021/05/08 08:43:09;;;;;;;3.33;2.47;;;;;;;14.55;46.49;96629.47;5003549;28;20062;-61
2021/05/08 08:45:38;;;;;;;4.53;3.10;;;;;;;14.42;46.25;96627.31;5004756;28;20483;-66
2021/05/08 08:48:24;;;;;;;3.78;2.85;;;;;;;14.08;45.63;96629.25;5000949;28;20114;-66
2021/05/08 08:50:53;;;;;;;3.67;2.95;;;;;;;14.14;45.46;96623.25;5006264;28;20088;-63
2021/05/08 08:53:21;;;;;;;3.13;2.60;;;;;;;14.40;44.84;96623.97;5009655;28;20054;-64
2021/05/08 08:55:53;;;;;;;2.88;2.47;;;;;;;14.70;44.93;96617.22;4989048;28;20030;-64
2021/05/08 08:58:26;;;;;;;6.00;2.70;;;;;;;15.78;47.70;96616.81;5007546;28;20096;-64
2021/05/08 09:00:57;;;;;;;4.47;2.70;;;;;;;15.04;44.13;96613.56;4989730;28;20069;-64
2021/05/08 09:03:26;;;;;;;5.85;2.83;;;;;;;14.58;43.06;96623.03;4991378;28;20523;-66
2021/05/08 09:05:57;;;;;;;4.10;3.03;;;;;;;15.58;42.16;96618.19;5001353;28;20065;-65
2021/05/08 09:08:26;;;;;;;3.25;2.60;;;;;;;16.05;41.55;96615.53;4993644;28;20068;-66
2021/05/08 09:11:17;;;;;;;4.15;2.80;;;;;;;16.22;42.56;96618.91;4987117;28;20046;-65
2021/05/08 09:13:46;;;;;;;3.92;2.90;;;;;;;16.39;42.49;96614.31;5000735;28;20069;-66
2021/05/08 09:16:17;;;;;;;3.47;2.75;;;;;;;16.65;43.03;96613.13;5008544;28;20041;-65
2021/05/08 09:18:45;;;;;;;5.00;2.72;;;;;;;16.71;39.48;96617.75;5001408;28;20058;-67
2021/05/08 09:21:29;;;;;;;3.80;2.38;;;;;;;17.08;41.24;96614.28;4990012;28;20073;-66
2021/05/08 09:24:00;;;;;;;3.95;2.65;;;;;;;16.92;40.86;96615.25;4997265;28;20069;-66
2021/05/08 09:26:38;;;;;;;5.43;2.50;;;;;;;16.31;38.82;96601.91;5008884;28;20045;-65
2021/05/08 09:29:17;;;;;;;4.00;2.70;;;;;;;16.38;39.94;96608.19;5004769;28;20077;-65
2021/05/08 09:31:53;;;;;;;3.65;3.03;;;;;;;16.46;38.63;96603.78;5007685;28;20076;-66
2021/05/08 09:34:21;;;;;;;3.85;2.40;;;;;;;15.34;39.58;96613.78;5004377;28;20057;-66
2021/05/08 09:36:50;;;;;;;2.55;2.35;;;;;;;16.81;39.84;96605.03;5007238;28;20554;-66
2021/05/08 09:39:28;;;;;;;3.55;2.70;;;;;;;16.28;41.94;96602.25;4992832;28;20164;-66
2021/05/08 09:41:56;;;;;;;2.70;2.47;;;;;;;15.65;41.08;96601.38;5006363;28;20042;-66
2021/05/08 09:44:26;;;;;;;4.18;3.28;;;;;;;16.35;45.10;96599.72;5007698;28;20054;-65
2021/05/08 09:46:56;;;;;;;4.90;2.70;;;;;;;15.97;41.16;96601.47;5008510;28;20070;-65
2021/05/08 09:49:25;;;;;;;3.03;2.72;;;;;;;16.41;42.06;96596.31;5008487;28;20676;-66
2021/05/08 09:52:00;;;;;;;2.90;2.58;;;;;;;17.19;39.08;96603.16;5006468;28;20038;-66
2021/05/08 09:54:28;;;;;;;4.38;2.15;;;;;;;17.51;39.56;96593.97;5008063;28;20678;-66
2021/05/08 09:56:56;;;;;;;2.60;2.30;;;;;;;16.58;41.20;96589.03;5006224;28;20568;-66
2021/05/08 09:59:30;;;;;;;5.45;2.60;;;;;;;16.69;41.68;96595.78;5008337;28;20517;-65
2021/05/08 10:02:15;;;;;;;4.22;2.50;;;;;;;16.34;39.28;96596.22;5014330;28;20070;-66
2021/05/08 10:05:11;;;;;;;3.03;2.40;;;;;;;17.05;38.81;96593.31;5008350;28;20042;-66
2021/05/08 10:07:38;;;;;;;5.60;2.80;;;;;;;17.04;38.69;96581.84;5003232;28;20465;-66
2021/05/08 10:10:08;;;;;;;3.83;2.60;;;;;;;17.03;38.27;96580.19;5004712;28;20045;-66
2021/05/08 10:12:36;;;;;;;3.78;2.53;;;;;;;17.49;37.53;96580.00;5007388;28;20058;-65
2021/05/08 10:15:06;;;;;;;3.13;2.60;;;;;;;16.92;38.42;96577.13;5003658;28;20053;-67
2021/05/08 10:17:37;;;;;;;3.87;2.77;;;;;;;17.36;36.33;96574.50;5000999;28;20085;-66
2021/05/08 10:20:09;;;;;;;3.80;2.50;;;;;;;16.96;38.41;96565.09;5007396;28;20169;-66
2021/05/08 10:22:41;;;;;;;6.25;2.70;;;;;;;17.53;40.00;96549.28;5001993;28;20066;-66
2021/05/08 10:25:11;;;;;;;4.97;2.90;;;;;;;17.70;39.04;96555.25;4940987;28;20540;-66
2021/05/08 10:27:39;;;;;;;3.03;2.63;;;;;;;17.80;37.47;96547.00;4992790;28;20077;-66
2021/05/08 10:30:11;;;;;;;2.83;2.53;;;;;;;17.59;37.58;96552.25;5008387;28;20081;-66
2021/05/08 10:32:42;;;;;;;4.80;2.60;;;;;;;18.09;38.95;96553.25;5007675;28;20480;-66
2021/05/08 10:35:12;;;;;;;3.70;2.85;;;;;;;17.84;41.60;96547.44;5004770;28;20069;-66
2021/05/08 10:38:12;;;;;;;4.03;2.85;;;;;;;18.47;38.59;96543.13;5006969;28;20061;-66
2021/05/08 10:41:01;;;;;;;2.88;2.30;;;;;;;18.62;37.38;96548.41;5004449;28;20057;-65
2021/05/08 10:43:48;;;;;;;3.20;2.63;;;;;;;19.48;37.31;96541.00;5004563;28;20524;-67
2021/05/08 10:46:18;;;;;;;3.72;2.78;;;;;;;18.34;36.22;96548.34;5004698;28;20073;-65
2021/05/08 10:49:20;;;;;;;3.00;2.70;;;;;;;18.20;36.23;96542.91;5005946;28;20070;-66
2021/05/08 10:51:58;;;;;;;4.72;2.60;;;;;;;19.37;36.55;96539.72;4982908;28;20069;-66
2021/05/08 10:54:55;;;;;;;3.20;2.80;;;;;;;17.35;37.48;96548.88;5004953;28;20408;-66
2021/05/08 10:57:25;;;;;;;3.47;2.90;;;;;;;18.52;36.16;96538.06;5005517;28;20045;-67
2021/05/08 11:00:31;;;;;;;4.03;2.97;;;;;;;18.84;38.26;96538.53;5005901;28;20048;-64
2021/05/08 11:03:01;;;;;;;4.10;2.85;;;;;;;18.30;38.37;96544.41;5006529;28;20065;-64
2021/05/08 11:05:33;;;;;;;3.13;2.42;;;;;;;18.37;38.52;96537.28;5007714;28;20049;-66
2021/05/08 11:08:00;;;;;;;3.38;2.67;;;;;;;18.17;38.58;96537.09;5008945;28;20069;-66
2021/05/08 11:10:53;;;;;;;4.18;2.95;;;;;;;18.70;36.89;96535.72;5004871;28;20058;-66
2021/05/08 11:13:47;;;;;;;3.42;2.88;;;;;;;18.44;35.60;96533.69;5000765;28;20061;-64
2021/05/08 11:16:16;;;;;;;5.38;3.15;;;;;;;18.74;36.48;96531.69;5004720;28;20447;-65
2021/05/08 11:18:47;;;;;;;3.50;3.10;;;;;;;19.34;34.62;96520.53;5000254;28;20074;-65
2021/05/08 11:21:43;;;;;;;3.90;3.15;;;;;;;18.96;35.89;96518.28;4986844;28;20042;-64
2021/05/08 11:24:12;;;;;;;3.78;2.80;;;;;;;19.44;36.90;96513.81;4985288;28;20416;-63
2021/05/08 11:26:45;;;;;;;4.18;2.90;;;;;;;19.44;36.12;96513.81;5007863;28;20088;-65
2021/05/08 11:29:16;;;;;;;5.60;3.20;;;;;;;18.65;40.30;96502.59;5010484;28;20080;-65
2021/05/08 11:31:46;;;;;;;6.32;3.50;;;;;;;19.48;38.60;96500.88;5005024;28;20030;-65
2021/05/08 11:34:16;;;;;;;3.55;3.20;;;;;;;19.43;36.95;96495.28;5004696;28;20451;-66
2021/05/08 11:36:50;;;;;;;4.75;2.92;;;;;;;19.37;39.63;96494.25;5006349;28;20069;-67
2021/05/08 11:39:20;;;;;;;4.00;3.60;;;;;;;18.62;38.54;96495.81;5002612;28;20041;-65
2021/05/08 11:41:51;;;;;;;4.60;3.40;;;;;;;18.30;37.22;96493.69;5008409;28;20165;-65
2021/05/08 11:44:22;;;;;;;3.92;3.50;;;;;;;19.16;36.85;96491.66;5005974;28;21411;-66
2021/05/08 11:46:59;;;;;;;3.78;2.95;;;;;;;18.89;36.45;96494.19;5003656;28;20084;-64